sensor_id;sensor_type;location;lat;lon;timestamp;P1;durP1;ratioP1;P2;durP2;ratioP2
9438;SDS011;5176;42.622;25.386;2024-02-28T00:00:31;20.43;;;12.77;;
9438;SDS011;5176;42.622;25.386;2024-02-28T00:02:59;19.63;;;14.03;;
9438;SDS011;5176;42.622;25.386;2024-02-28T00:05:26;26.53;;;16.73;;
9438;SDS011;5176;42.622;25.386;2024-02-28T00:07:53;28.83;;;17.90;;
9438;SDS011;5176;42.622;25.386;2024-02-28T00:10:20;24.00;;;16.80;;
9438;SDS011;5176;42.622;25.386;2024-02-28T00:12:48;21.17;;;13.87;;
9438;SDS011;5176;42.622;25.386;2024-02-28T00:15:15;20.57;;;13.20;;
9438;SDS011;5176;42.622;25.386;2024-02-28T00:17:44;18.97;;;13.10;;
9438;SDS011;5176;42.622;25.386;2024-02-28T00:20:11;19.20;;;12.67;;
9438;SDS011;5176;42.622;25.386;2024-02-28T00:22:39;16.63;;;12.33;;
9438;SDS011;5176;42.622;25.386;2024-02-28T00:25:08;19.13;;;12.20;;
9438;SDS011;5176;42.622;25.386;2024-02-28T00:27:36;16.73;;;11.47;;
9438;SDS011;5176;42.622;25.386;2024-02-28T00:30:04;18.90;;;12.40;;
9438;SDS011;5176;42.622;25.386;2024-02-28T00:32:32;20.43;;;13.17;;
9438;SDS011;5176;42.622;25.386;2024-02-28T00:35:01;24.67;;;12.80;;
9438;SDS011;5176;42.622;25.386;2024-02-28T00:37:29;21.40;;;12.63;;
9438;SDS011;5176;42.622;25.386;2024-02-28T00:39:56;20.57;;;12.37;;
9438;SDS011;5176;42.622;25.386;2024-02-28T00:42:23;21.60;;;12.87;;
9438;SDS011;5176;42.622;25.386;2024-02-28T00:44:52;23.03;;;12.53;;
9438;SDS011;5176;42.622;25.386;2024-02-28T00:47:19;24.03;;;13.23;;
9438;SDS011;5176;42.622;25.386;2024-02-28T00:49:47;23.70;;;13.17;;
9438;SDS011;5176;42.622;25.386;2024-02-28T00:52:15;19.13;;;13.13;;
9438;SDS011;5176;42.622;25.386;2024-02-28T00:54:43;18.23;;;12.33;;
9438;SDS011;5176;42.622;25.386;2024-02-28T00:57:10;17.87;;;12.03;;
9438;SDS011;5176;42.622;25.386;2024-02-28T00:59:37;19.83;;;12.17;;
9438;SDS011;5176;42.622;25.386;2024-02-28T01:02:05;18.03;;;11.73;;
9438;SDS011;5176;42.622;25.386;2024-02-28T01:04:32;22.93;;;12.87;;
9438;SDS011;5176;42.622;25.386;2024-02-28T01:06:59;22.67;;;13.90;;
9438;SDS011;5176;42.622;25.386;2024-02-28T01:09:28;21.20;;;13.27;;
9438;SDS011;5176;42.622;25.386;2024-02-28T01:11:55;21.93;;;12.90;;
9438;SDS011;5176;42.622;25.386;2024-02-28T01:14:23;25.07;;;14.10;;
9438;SDS011;5176;42.622;25.386;2024-02-28T01:16:50;23.90;;;13.67;;
9438;SDS011;5176;42.622;25.386;2024-02-28T01:19:17;25.30;;;13.93;;
9438;SDS011;5176;42.622;25.386;2024-02-28T01:21:44;25.73;;;13.43;;
9438;SDS011;5176;42.622;25.386;2024-02-28T01:24:12;23.43;;;14.37;;
9438;SDS011;5176;42.622;25.386;2024-02-28T01:26:41;23.97;;;13.73;;
9438;SDS011;5176;42.622;25.386;2024-02-28T01:29:08;28.80;;;14.07;;
9438;SDS011;5176;42.622;25.386;2024-02-28T01:31:35;24.80;;;15.00;;
9438;SDS011;5176;42.622;25.386;2024-02-28T01:34:02;25.77;;;14.80;;
9438;SDS011;5176;42.622;25.386;2024-02-28T01:36:30;26.83;;;14.27;;
9438;SDS011;5176;42.622;25.386;2024-02-28T01:38:57;22.53;;;14.17;;
9438;SDS011;5176;42.622;25.386;2024-02-28T01:41:24;27.20;;;14.33;;
9438;SDS011;5176;42.622;25.386;2024-02-28T01:43:53;22.30;;;13.33;;
9438;SDS011;5176;42.622;25.386;2024-02-28T01:46:22;22.63;;;13.30;;
9438;SDS011;5176;42.622;25.386;2024-02-28T01:48:52;20.67;;;13.53;;
9438;SDS011;5176;42.622;25.386;2024-02-28T01:51:20;23.50;;;14.03;;
9438;SDS011;5176;42.622;25.386;2024-02-28T01:53:48;20.13;;;13.10;;
9438;SDS011;5176;42.622;25.386;2024-02-28T01:56:17;22.73;;;12.77;;
9438;SDS011;5176;42.622;25.386;2024-02-28T01:58:46;22.37;;;12.97;;
9438;SDS011;5176;42.622;25.386;2024-02-28T02:01:15;22.20;;;13.33;;
9438;SDS011;5176;42.622;25.386;2024-02-28T02:03:43;22.50;;;12.80;;
9438;SDS011;5176;42.622;25.386;2024-02-28T02:06:10;21.87;;;13.03;;
9438;SDS011;5176;42.622;25.386;2024-02-28T02:08:38;21.67;;;14.00;;
9438;SDS011;5176;42.622;25.386;2024-02-28T02:11:06;22.63;;;13.50;;
9438;SDS011;5176;42.622;25.386;2024-02-28T02:13:33;25.30;;;14.53;;
9438;SDS011;5176;42.622;25.386;2024-02-28T02:16:02;27.67;;;16.00;;
9438;SDS011;5176;42.622;25.386;2024-02-28T02:18:31;45.10;;;17.90;;
9438;SDS011;5176;42.622;25.386;2024-02-28T02:21:01;33.40;;;16.67;;
9438;SDS011;5176;42.622;25.386;2024-02-28T02:23:33;37.67;;;19.10;;
9438;SDS011;5176;42.622;25.386;2024-02-28T02:26:01;38.73;;;20.43;;
9438;SDS011;5176;42.622;25.386;2024-02-28T02:28:28;50.80;;;25.50;;
9438;SDS011;5176;42.622;25.386;2024-02-28T02:30:55;61.70;;;30.30;;
9438;SDS011;5176;42.622;25.386;2024-02-28T02:33:22;73.13;;;32.33;;
9438;SDS011;5176;42.622;25.386;2024-02-28T02:35:50;60.67;;;29.63;;
9438;SDS011;5176;42.622;25.386;2024-02-28T02:38:18;84.47;;;30.83;;
9438;SDS011;5176;42.622;25.386;2024-02-28T02:40:49;89.20;;;34.00;;
9438;SDS011;5176;42.622;25.386;2024-02-28T02:43:17;81.70;;;35.47;;
9438;SDS011;5176;42.622;25.386;2024-02-28T02:45:44;57.40;;;27.43;;
9438;SDS011;5176;42.622;25.386;2024-02-28T02:48:12;63.70;;;25.80;;
9438;SDS011;5176;42.622;25.386;2024-02-28T02:50:39;50.37;;;21.97;;
9438;SDS011;5176;42.622;25.386;2024-02-28T02:53:09;49.07;;;20.37;;
9438;SDS011;5176;42.622;25.386;2024-02-28T02:55:37;36.33;;;19.50;;
9438;SDS011;5176;42.622;25.386;2024-02-28T02:58:06;42.83;;;17.93;;
9438;SDS011;5176;42.622;25.386;2024-02-28T03:00:33;36.53;;;17.83;;
9438;SDS011;5176;42.622;25.386;2024-02-28T03:03:01;35.63;;;17.80;;
9438;SDS011;5176;42.622;25.386;2024-02-28T03:05:28;34.87;;;17.83;;
9438;SDS011;5176;42.622;25.386;2024-02-28T03:07:56;34.33;;;17.03;;
9438;SDS011;5176;42.622;25.386;2024-02-28T03:10:23;34.43;;;18.00;;
9438;SDS011;5176;42.622;25.386;2024-02-28T03:12:50;34.17;;;16.90;;
9438;SDS011;5176;42.622;25.386;2024-02-28T03:15:19;36.70;;;14.80;;
9438;SDS011;5176;42.622;25.386;2024-02-28T03:17:48;29.67;;;15.40;;
9438;SDS011;5176;42.622;25.386;2024-02-28T03:20:15;25.03;;;15.20;;
9438;SDS011;5176;42.622;25.386;2024-02-28T03:22:43;30.50;;;13.67;;
9438;SDS011;5176;42.622;25.386;2024-02-28T03:25:10;25.93;;;13.63;;
9438;SDS011;5176;42.622;25.386;2024-02-28T03:27:38;22.53;;;12.90;;
9438;SDS011;5176;42.622;25.386;2024-02-28T03:30:06;19.53;;;13.50;;
9438;SDS011;5176;42.622;25.386;2024-02-28T03:32:35;20.60;;;13.77;;
9438;SDS011;5176;42.622;25.386;2024-02-28T03:35:03;21.50;;;12.80;;
9438;SDS011;5176;42.622;25.386;2024-02-28T03:37:34;20.90;;;12.40;;
9438;SDS011;5176;42.622;25.386;2024-02-28T03:40:01;19.70;;;12.90;;
9438;SDS011;5176;42.622;25.386;2024-02-28T03:42:30;19.90;;;12.40;;
9438;SDS011;5176;42.622;25.386;2024-02-28T03:44:57;19.17;;;11.90;;
9438;SDS011;5176;42.622;25.386;2024-02-28T03:47:24;17.90;;;11.67;;
9438;SDS011;5176;42.622;25.386;2024-02-28T03:49:53;24.57;;;12.57;;
9438;SDS011;5176;42.622;25.386;2024-02-28T03:52:22;19.60;;;12.90;;
9438;SDS011;5176;42.622;25.386;2024-02-28T03:54:50;20.77;;;12.30;;
9438;SDS011;5176;42.622;25.386;2024-02-28T03:57:17;20.33;;;12.20;;
9438;SDS011;5176;42.622;25.386;2024-02-28T03:59:45;18.47;;;11.90;;
9438;SDS011;5176;42.622;25.386;2024-02-28T04:02:12;18.70;;;12.10;;
9438;SDS011;5176;42.622;25.386;2024-02-28T04:04:40;21.20;;;12.33;;
9438;SDS011;5176;42.622;25.386;2024-02-28T04:07:09;23.30;;;11.87;;
9438;SDS011;5176;42.622;25.386;2024-02-28T04:09:37;20.23;;;11.87;;
9438;SDS011;5176;42.622;25.386;2024-02-28T04:12:05;25.73;;;12.00;;
9438;SDS011;5176;42.622;25.386;2024-02-28T04:14:33;18.67;;;12.40;;
9438;SDS011;5176;42.622;25.386;2024-02-28T04:17:04;21.20;;;12.80;;
9438;SDS011;5176;42.622;25.386;2024-02-28T04:19:32;22.40;;;13.97;;
9438;SDS011;5176;42.622;25.386;2024-02-28T04:22:03;33.27;;;15.23;;
9438;SDS011;5176;42.622;25.386;2024-02-28T04:24:31;27.97;;;15.33;;
9438;SDS011;5176;42.622;25.386;2024-02-28T04:26:59;27.33;;;15.13;;
9438;SDS011;5176;42.622;25.386;2024-02-28T04:29:28;25.77;;;15.87;;
9438;SDS011;5176;42.622;25.386;2024-02-28T04:31:55;28.97;;;15.43;;
9438;SDS011;5176;42.622;25.386;2024-02-28T04:34:23;24.07;;;14.17;;
9438;SDS011;5176;42.622;25.386;2024-02-28T04:36:50;21.73;;;13.03;;
9438;SDS011;5176;42.622;25.386;2024-02-28T04:39:18;23.87;;;12.80;;
9438;SDS011;5176;42.622;25.386;2024-02-28T04:41:46;22.93;;;12.07;;
9438;SDS011;5176;42.622;25.386;2024-02-28T04:44:14;16.80;;;11.23;;
9438;SDS011;5176;42.622;25.386;2024-02-28T04:46:41;21.57;;;10.87;;
9438;SDS011;5176;42.622;25.386;2024-02-28T04:49:09;19.43;;;12.20;;
9438;SDS011;5176;42.622;25.386;2024-02-28T04:51:36;26.87;;;12.53;;
9438;SDS011;5176;42.622;25.386;2024-02-28T04:54:03;27.37;;;13.20;;
9438;SDS011;5176;42.622;25.386;2024-02-28T04:56:31;37.20;;;14.17;;
9438;SDS011;5176;42.622;25.386;2024-02-28T04:59:00;24.63;;;13.30;;
9438;SDS011;5176;42.622;25.386;2024-02-28T05:01:28;30.23;;;13.77;;
9438;SDS011;5176;42.622;25.386;2024-02-28T05:03:55;19.17;;;13.07;;
9438;SDS011;5176;42.622;25.386;2024-02-28T05:06:22;29.93;;;14.83;;
9438;SDS011;5176;42.622;25.386;2024-02-28T05:08:49;26.77;;;14.67;;
9438;SDS011;5176;42.622;25.386;2024-02-28T05:11:17;26.07;;;14.87;;
9438;SDS011;5176;42.622;25.386;2024-02-28T05:13:44;33.20;;;15.27;;
9438;SDS011;5176;42.622;25.386;2024-02-28T05:16:14;26.33;;;16.20;;
9438;SDS011;5176;42.622;25.386;2024-02-28T05:18:42;30.50;;;15.17;;
9438;SDS011;5176;42.622;25.386;2024-02-28T05:21:11;23.30;;;15.83;;
9438;SDS011;5176;42.622;25.386;2024-02-28T05:23:39;27.20;;;15.00;;
9438;SDS011;5176;42.622;25.386;2024-02-28T05:26:06;24.40;;;14.10;;
9438;SDS011;5176;42.622;25.386;2024-02-28T05:28:33;27.43;;;15.87;;
9438;SDS011;5176;42.622;25.386;2024-02-28T05:31:02;28.97;;;15.13;;
9438;SDS011;5176;42.622;25.386;2024-02-28T05:33:38;29.00;;;15.70;;
9438;SDS011;5176;42.622;25.386;2024-02-28T05:36:08;24.37;;;13.40;;
9438;SDS011;5176;42.622;25.386;2024-02-28T05:38:35;30.00;;;14.80;;
9438;SDS011;5176;42.622;25.386;2024-02-28T05:41:03;26.53;;;15.57;;
9438;SDS011;5176;42.622;25.386;2024-02-28T05:43:30;34.23;;;18.07;;
9438;SDS011;5176;42.622;25.386;2024-02-28T05:45:57;34.53;;;15.57;;
9438;SDS011;5176;42.622;25.386;2024-02-28T05:48:25;31.47;;;15.40;;
9438;SDS011;5176;42.622;25.386;2024-02-28T05:50:53;31.63;;;16.90;;
9438;SDS011;5176;42.622;25.386;2024-02-28T05:53:21;29.70;;;15.00;;
9438;SDS011;5176;42.622;25.386;2024-02-28T05:55:52;29.10;;;14.07;;
9438;SDS011;5176;42.622;25.386;2024-02-28T05:58:22;24.70;;;13.63;;
9438;SDS011;5176;42.622;25.386;2024-02-28T06:00:50;20.10;;;11.93;;
9438;SDS011;5176;42.622;25.386;2024-02-28T06:03:18;22.23;;;12.40;;
9438;SDS011;5176;42.622;25.386;2024-02-28T06:05:45;25.77;;;13.53;;
9438;SDS011;5176;42.622;25.386;2024-02-28T06:08:14;19.07;;;12.17;;
9438;SDS011;5176;42.622;25.386;2024-02-28T06:10:41;16.87;;;11.70;;
9438;SDS011;5176;42.622;25.386;2024-02-28T06:13:08;24.37;;;12.30;;
9438;SDS011;5176;42.622;25.386;2024-02-28T06:15:36;17.57;;;11.50;;
9438;SDS011;5176;42.622;25.386;2024-02-28T06:18:03;20.80;;;13.50;;
9438;SDS011;5176;42.622;25.386;2024-02-28T06:20:31;22.07;;;12.47;;
9438;SDS011;5176;42.622;25.386;2024-02-28T06:22:58;22.60;;;13.03;;
9438;SDS011;5176;42.622;25.386;2024-02-28T06:25:27;19.90;;;12.03;;
9438;SDS011;5176;42.622;25.386;2024-02-28T06:27:54;17.70;;;10.50;;
9438;SDS011;5176;42.622;25.386;2024-02-28T06:30:21;21.93;;;14.30;;
9438;SDS011;5176;42.622;25.386;2024-02-28T06:32:49;27.53;;;17.30;;
9438;SDS011;5176;42.622;25.386;2024-02-28T06:35:16;30.67;;;18.17;;
9438;SDS011;5176;42.622;25.386;2024-02-28T06:37:44;21.13;;;13.93;;
9438;SDS011;5176;42.622;25.386;2024-02-28T06:40:15;25.87;;;15.70;;
9438;SDS011;5176;42.622;25.386;2024-02-28T06:42:44;28.93;;;16.87;;
9438;SDS011;5176;42.622;25.386;2024-02-28T06:45:11;21.57;;;13.57;;
9438;SDS011;5176;42.622;25.386;2024-02-28T06:47:37;29.00;;;15.70;;
9438;SDS011;5176;42.622;25.386;2024-02-28T06:50:05;26.10;;;16.67;;
9438;SDS011;5176;42.622;25.386;2024-02-28T06:52:33;34.67;;;18.77;;
9438;SDS011;5176;42.622;25.386;2024-02-28T06:55:01;30.30;;;17.43;;
9438;SDS011;5176;42.622;25.386;2024-02-28T06:57:35;22.97;;;14.70;;
9438;SDS011;5176;42.622;25.386;2024-02-28T07:00:06;24.43;;;14.90;;
9438;SDS011;5176;42.622;25.386;2024-02-28T07:02:34;24.67;;;14.93;;
9438;SDS011;5176;42.622;25.386;2024-02-28T07:05:02;26.27;;;15.17;;
9438;SDS011;5176;42.622;25.386;2024-02-28T07:07:30;24.03;;;14.00;;
9438;SDS011;5176;42.622;25.386;2024-02-28T07:09:57;25.27;;;15.23;;
9438;SDS011;5176;42.622;25.386;2024-02-28T07:12:24;23.20;;;15.40;;
9438;SDS011;5176;42.622;25.386;2024-02-28T07:14:52;32.97;;;19.63;;
9438;SDS011;5176;42.622;25.386;2024-02-28T07:17:19;29.80;;;17.00;;
9438;SDS011;5176;42.622;25.386;2024-02-28T07:19:47;26.67;;;15.97;;
9438;SDS011;5176;42.622;25.386;2024-02-28T07:22:14;25.50;;;14.27;;
9438;SDS011;5176;42.622;25.386;2024-02-28T07:24:42;24.30;;;13.43;;
9438;SDS011;5176;42.622;25.386;2024-02-28T07:27:09;23.10;;;13.87;;
9438;SDS011;5176;42.622;25.386;2024-02-28T07:29:36;21.10;;;12.53;;
9438;SDS011;5176;42.622;25.386;2024-02-28T07:32:04;23.43;;;12.77;;
9438;SDS011;5176;42.622;25.386;2024-02-28T07:34:33;21.83;;;14.63;;
9438;SDS011;5176;42.622;25.386;2024-02-28T07:37:00;22.77;;;14.57;;
9438;SDS011;5176;42.622;25.386;2024-02-28T07:39:27;24.87;;;16.60;;
9438;SDS011;5176;42.622;25.386;2024-02-28T07:41:55;24.53;;;15.90;;
9438;SDS011;5176;42.622;25.386;2024-02-28T07:44:22;24.50;;;15.63;;
9438;SDS011;5176;42.622;25.386;2024-02-28T07:46:49;26.13;;;16.13;;
9438;SDS011;5176;42.622;25.386;2024-02-28T07:49:17;22.97;;;15.33;;
9438;SDS011;5176;42.622;25.386;2024-02-28T07:51:45;24.27;;;16.83;;
9438;SDS011;5176;42.622;25.386;2024-02-28T07:54:12;29.60;;;16.83;;
9438;SDS011;5176;42.622;25.386;2024-02-28T07:56:40;24.33;;;16.43;;
9438;SDS011;5176;42.622;25.386;2024-02-28T07:59:07;26.17;;;17.07;;
9438;SDS011;5176;42.622;25.386;2024-02-28T08:01:34;23.23;;;15.67;;
9438;SDS011;5176;42.622;25.386;2024-02-28T08:04:05;26.53;;;16.23;;
9438;SDS011;5176;42.622;25.386;2024-02-28T08:06:32;23.40;;;16.00;;
9438;SDS011;5176;42.622;25.386;2024-02-28T08:09:01;28.90;;;18.63;;
9438;SDS011;5176;42.622;25.386;2024-02-28T08:11:29;24.07;;;16.43;;
9438;SDS011;5176;42.622;25.386;2024-02-28T08:13:56;26.07;;;15.97;;
9438;SDS011;5176;42.622;25.386;2024-02-28T08:16:24;22.93;;;14.87;;
9438;SDS011;5176;42.622;25.386;2024-02-28T08:18:51;22.13;;;13.70;;
9438;SDS011;5176;42.622;25.386;2024-02-28T08:21:18;21.73;;;14.40;;
9438;SDS011;5176;42.622;25.386;2024-02-28T08:23:46;21.40;;;14.87;;
9438;SDS011;5176;42.622;25.386;2024-02-28T08:26:14;27.97;;;17.70;;
9438;SDS011;5176;42.622;25.386;2024-02-28T08:28:42;25.17;;;15.80;;
9438;SDS011;5176;42.622;25.386;2024-02-28T08:31:09;24.17;;;14.43;;
9438;SDS011;5176;42.622;25.386;2024-02-28T08:33:36;19.93;;;13.70;;
9438;SDS011;5176;42.622;25.386;2024-02-28T08:36:04;21.37;;;13.87;;
9438;SDS011;5176;42.622;25.386;2024-02-28T08:38:31;22.50;;;13.67;;
9438;SDS011;5176;42.622;25.386;2024-02-28T08:41:00;21.50;;;12.80;;
9438;SDS011;5176;42.622;25.386;2024-02-28T08:43:28;20.97;;;13.83;;
9438;SDS011;5176;42.622;25.386;2024-02-28T08:45:56;21.87;;;13.33;;
9438;SDS011;5176;42.622;25.386;2024-02-28T08:48:24;20.07;;;14.20;;
9438;SDS011;5176;42.622;25.386;2024-02-28T08:50:51;23.13;;;13.73;;
9438;SDS011;5176;42.622;25.386;2024-02-28T08:53:18;23.87;;;14.53;;
9438;SDS011;5176;42.622;25.386;2024-02-28T08:55:45;25.57;;;15.90;;
9438;SDS011;5176;42.622;25.386;2024-02-28T08:58:13;24.73;;;13.97;;
9438;SDS011;5176;42.622;25.386;2024-02-28T09:00:41;18.17;;;12.60;;
9438;SDS011;5176;42.622;25.386;2024-02-28T09:03:09;22.17;;;14.00;;
9438;SDS011;5176;42.622;25.386;2024-02-28T09:05:36;21.83;;;14.13;;
9438;SDS011;5176;42.622;25.386;2024-02-28T09:08:04;26.43;;;15.17;;
9438;SDS011;5176;42.622;25.386;2024-02-28T09:10:32;22.42;;;14.70;;
9438;SDS011;5176;42.622;25.386;2024-02-28T09:13:00;28.53;;;13.97;;
9438;SDS011;5176;42.622;25.386;2024-02-28T09:15:27;17.42;;;11.02;;
9438;SDS011;5176;42.622;25.386;2024-02-28T09:17:56;27.20;;;11.13;;
9438;SDS011;5176;42.622;25.386;2024-02-28T09:20:23;16.05;;;10.77;;
9438;SDS011;5176;42.622;25.386;2024-02-28T09:22:51;20.42;;;11.35;;
9438;SDS011;5176;42.622;25.386;2024-02-28T09:25:18;17.23;;;11.35;;
9438;SDS011;5176;42.622;25.386;2024-02-28T09:27:46;14.43;;;10.38;;
9438;SDS011;5176;42.622;25.386;2024-02-28T09:30:14;23.02;;;11.98;;
9438;SDS011;5176;42.622;25.386;2024-02-28T09:32:42;26.05;;;10.68;;
9438;SDS011;5176;42.622;25.386;2024-02-28T09:35:11;19.70;;;11.15;;
9438;SDS011;5176;42.622;25.386;2024-02-28T09:37:38;27.83;;;16.20;;
9438;SDS011;5176;42.622;25.386;2024-02-28T09:40:08;15.35;;;11.10;;
9438;SDS011;5176;42.622;25.386;2024-02-28T09:42:36;23.20;;;15.85;;
9438;SDS011;5176;42.622;25.386;2024-02-28T09:45:04;15.75;;;12.57;;
9438;SDS011;5176;42.622;25.386;2024-02-28T09:47:34;16.73;;;10.05;;
9438;SDS011;5176;42.622;25.386;2024-02-28T09:50:02;17.20;;;10.45;;
9438;SDS011;5176;42.622;25.386;2024-02-28T09:52:32;37.03;;;14.20;;
9438;SDS011;5176;42.622;25.386;2024-02-28T09:54:58;14.50;;;8.07;;
9438;SDS011;5176;42.622;25.386;2024-02-28T09:57:25;13.30;;;9.00;;
9438;SDS011;5176;42.622;25.386;2024-02-28T09:59:55;11.65;;;8.35;;
9438;SDS011;5176;42.622;25.386;2024-02-28T10:02:24;11.98;;;8.13;;
9438;SDS011;5176;42.622;25.386;2024-02-28T10:04:53;12.00;;;8.18;;
9438;SDS011;5176;42.622;25.386;2024-02-28T10:07:22;13.88;;;9.50;;
9438;SDS011;5176;42.622;25.386;2024-02-28T10:09:51;13.50;;;8.90;;
9438;SDS011;5176;42.622;25.386;2024-02-28T10:12:20;12.55;;;8.80;;
9438;SDS011;5176;42.622;25.386;2024-02-28T10:14:49;15.75;;;8.95;;
9438;SDS011;5176;42.622;25.386;2024-02-28T10:17:17;12.30;;;8.90;;
9438;SDS011;5176;42.622;25.386;2024-02-28T10:19:44;14.65;;;8.82;;
9438;SDS011;5176;42.622;25.386;2024-02-28T10:22:12;14.27;;;8.35;;
9438;SDS011;5176;42.622;25.386;2024-02-28T10:24:39;11.27;;;7.68;;
9438;SDS011;5176;42.622;25.386;2024-02-28T10:27:08;12.57;;;7.50;;
9438;SDS011;5176;42.622;25.386;2024-02-28T10:29:36;11.27;;;7.07;;
9438;SDS011;5176;42.622;25.386;2024-02-28T10:32:03;10.02;;;8.40;;
9438;SDS011;5176;42.622;25.386;2024-02-28T10:34:31;14.85;;;8.50;;
9438;SDS011;5176;42.622;25.386;2024-02-28T10:37:00;14.18;;;7.80;;
9438;SDS011;5176;42.622;25.386;2024-02-28T10:39:29;18.73;;;9.07;;
9438;SDS011;5176;42.622;25.386;2024-02-28T10:41:57;12.75;;;7.80;;
9438;SDS011;5176;42.622;25.386;2024-02-28T10:44:28;10.60;;;7.88;;
9438;SDS011;5176;42.622;25.386;2024-02-28T10:46:59;11.63;;;7.75;;
9438;SDS011;5176;42.622;25.386;2024-02-28T10:49:27;11.25;;;8.10;;
9438;SDS011;5176;42.622;25.386;2024-02-28T10:51:56;14.57;;;8.65;;
9438;SDS011;5176;42.622;25.386;2024-02-28T10:54:26;9.98;;;7.88;;
9438;SDS011;5176;42.622;25.386;2024-02-28T10:56:57;12.57;;;8.05;;
9438;SDS011;5176;42.622;25.386;2024-02-28T10:59:27;18.52;;;9.30;;
9438;SDS011;5176;42.622;25.386;2024-02-28T11:01:56;12.35;;;7.20;;
9438;SDS011;5176;42.622;25.386;2024-02-28T11:04:24;9.98;;;7.20;;
9438;SDS011;5176;42.622;25.386;2024-02-28T11:06:51;10.80;;;6.50;;
9438;SDS011;5176;42.622;25.386;2024-02-28T11:09:21;12.60;;;7.30;;
9438;SDS011;5176;42.622;25.386;2024-02-28T11:11:49;9.52;;;7.30;;
9438;SDS011;5176;42.622;25.386;2024-02-28T11:14:17;14.82;;;7.45;;
9438;SDS011;5176;42.622;25.386;2024-02-28T11:16:58;11.77;;;7.07;;
9438;SDS011;5176;42.622;25.386;2024-02-28T11:19:27;9.60;;;7.50;;
9438;SDS011;5176;42.622;25.386;2024-02-28T11:21:56;9.10;;;6.75;;
9438;SDS011;5176;42.622;25.386;2024-02-28T11:24:24;12.15;;;6.78;;
9438;SDS011;5176;42.622;25.386;2024-02-28T11:26:56;11.38;;;6.65;;
9438;SDS011;5176;42.622;25.386;2024-02-28T11:29:24;9.93;;;6.95;;
9438;SDS011;5176;42.622;25.386;2024-02-28T11:31:54;12.77;;;7.95;;
9438;SDS011;5176;42.622;25.386;2024-02-28T11:34:22;18.35;;;7.45;;
9438;SDS011;5176;42.622;25.386;2024-02-28T11:36:49;12.38;;;7.97;;
9438;SDS011;5176;42.622;25.386;2024-02-28T11:39:18;9.65;;;6.13;;
9438;SDS011;5176;42.622;25.386;2024-02-28T11:41:46;13.15;;;7.75;;
9438;SDS011;5176;42.622;25.386;2024-02-28T11:44:14;24.92;;;10.48;;
9438;SDS011;5176;42.622;25.386;2024-02-28T11:46:43;12.98;;;7.85;;
9438;SDS011;5176;42.622;25.386;2024-02-28T11:49:13;12.52;;;7.82;;
9438;SDS011;5176;42.622;25.386;2024-02-28T11:51:40;8.52;;;7.03;;
9438;SDS011;5176;42.622;25.386;2024-02-28T11:54:08;10.82;;;8.43;;
9438;SDS011;5176;42.622;25.386;2024-02-28T11:56:36;14.60;;;7.72;;
9438;SDS011;5176;42.622;25.386;2024-02-28T11:59:04;13.00;;;8.32;;
9438;SDS011;5176;42.622;25.386;2024-02-28T12:01:33;10.02;;;6.93;;
9438;SDS011;5176;42.622;25.386;2024-02-28T12:04:02;11.55;;;7.65;;
9438;SDS011;5176;42.622;25.386;2024-02-28T12:06:32;9.00;;;7.20;;
9438;SDS011;5176;42.622;25.386;2024-02-28T12:09:00;10.32;;;7.35;;
9438;SDS011;5176;42.622;25.386;2024-02-28T12:11:29;9.50;;;7.28;;
9438;SDS011;5176;42.622;25.386;2024-02-28T12:13:56;11.77;;;7.88;;
9438;SDS011;5176;42.622;25.386;2024-02-28T12:16:24;16.23;;;9.88;;
9438;SDS011;5176;42.622;25.386;2024-02-28T12:18:52;17.70;;;12.27;;
9438;SDS011;5176;42.622;25.386;2024-02-28T12:21:20;14.18;;;8.27;;
9438;SDS011;5176;42.622;25.386;2024-02-28T12:23:50;10.68;;;8.07;;
9438;SDS011;5176;42.622;25.386;2024-02-28T12:26:17;12.65;;;9.85;;
9438;SDS011;5176;42.622;25.386;2024-02-28T12:28:45;10.30;;;6.15;;
9438;SDS011;5176;42.622;25.386;2024-02-28T12:31:12;9.43;;;6.93;;
9438;SDS011;5176;42.622;25.386;2024-02-28T12:33:40;13.38;;;7.18;;
9438;SDS011;5176;42.622;25.386;2024-02-28T12:36:07;11.25;;;6.93;;
9438;SDS011;5176;42.622;25.386;2024-02-28T12:38:35;13.65;;;7.40;;
9438;SDS011;5176;42.622;25.386;2024-02-28T12:41:04;10.13;;;5.57;;
9438;SDS011;5176;42.622;25.386;2024-02-28T12:43:31;7.50;;;6.05;;
9438;SDS011;5176;42.622;25.386;2024-02-28T12:45:59;7.53;;;4.97;;
9438;SDS011;5176;42.622;25.386;2024-02-28T12:48:27;7.55;;;4.15;;
9438;SDS011;5176;42.622;25.386;2024-02-28T12:50:56;4.13;;;3.50;;
9438;SDS011;5176;42.622;25.386;2024-02-28T12:53:24;11.63;;;5.97;;
9438;SDS011;5176;42.622;25.386;2024-02-28T12:55:51;7.15;;;4.43;;
9438;SDS011;5176;42.622;25.386;2024-02-28T12:58:20;7.00;;;4.75;;
9438;SDS011;5176;42.622;25.386;2024-02-28T13:00:48;7.05;;;3.92;;
9438;SDS011;5176;42.622;25.386;2024-02-28T13:03:16;9.65;;;6.55;;
9438;SDS011;5176;42.622;25.386;2024-02-28T13:05:43;5.60;;;4.57;;
9438;SDS011;5176;42.622;25.386;2024-02-28T13:08:11;5.60;;;4.38;;
9438;SDS011;5176;42.622;25.386;2024-02-28T13:10:38;6.85;;;4.82;;
9438;SDS011;5176;42.622;25.386;2024-02-28T13:13:06;6.25;;;3.60;;
9438;SDS011;5176;42.622;25.386;2024-02-28T13:15:35;8.43;;;4.38;;
9438;SDS011;5176;42.622;25.386;2024-02-28T13:18:02;4.47;;;3.67;;
9438;SDS011;5176;42.622;25.386;2024-02-28T13:20:34;5.95;;;3.70;;
9438;SDS011;5176;42.622;25.386;2024-02-28T13:23:03;5.07;;;3.38;;
9438;SDS011;5176;42.622;25.386;2024-02-28T13:25:31;15.05;;;4.10;;
9438;SDS011;5176;42.622;25.386;2024-02-28T13:27:58;8.70;;;3.90;;
9438;SDS011;5176;42.622;25.386;2024-02-28T13:30:25;8.82;;;4.28;;
9438;SDS011;5176;42.622;25.386;2024-02-28T13:32:54;9.00;;;5.00;;
9438;SDS011;5176;42.622;25.386;2024-02-28T13:35:22;7.43;;;3.97;;
9438;SDS011;5176;42.622;25.386;2024-02-28T13:37:49;6.45;;;4.10;;
9438;SDS011;5176;42.622;25.386;2024-02-28T13:40:18;6.30;;;5.35;;
9438;SDS011;5176;42.622;25.386;2024-02-28T13:42:46;5.00;;;3.72;;
9438;SDS011;5176;42.622;25.386;2024-02-28T13:45:13;26.90;;;8.77;;
9438;SDS011;5176;42.622;25.386;2024-02-28T13:47:40;6.13;;;3.80;;
9438;SDS011;5176;42.622;25.386;2024-02-28T13:50:09;8.35;;;4.55;;
9438;SDS011;5176;42.622;25.386;2024-02-28T13:52:37;6.35;;;4.05;;
9438;SDS011;5176;42.622;25.386;2024-02-28T13:55:04;7.90;;;4.28;;
9438;SDS011;5176;42.622;25.386;2024-02-28T13:57:34;7.32;;;3.47;;
9438;SDS011;5176;42.622;25.386;2024-02-28T14:00:02;6.75;;;4.20;;
9438;SDS011;5176;42.622;25.386;2024-02-28T14:02:32;7.55;;;4.80;;
9438;SDS011;5176;42.622;25.386;2024-02-28T14:04:59;6.93;;;4.22;;
9438;SDS011;5176;42.622;25.386;2024-02-28T14:07:28;9.77;;;4.93;;
9438;SDS011;5176;42.622;25.386;2024-02-28T14:09:55;4.88;;;4.07;;
9438;SDS011;5176;42.622;25.386;2024-02-28T14:12:24;9.13;;;5.18;;
9438;SDS011;5176;42.622;25.386;2024-02-28T14:14:51;8.00;;;5.07;;
9438;SDS011;5176;42.622;25.386;2024-02-28T14:17:19;7.55;;;4.95;;
9438;SDS011;5176;42.622;25.386;2024-02-28T14:19:46;7.35;;;5.20;;
9438;SDS011;5176;42.622;25.386;2024-02-28T14:22:13;9.00;;;4.82;;
9438;SDS011;5176;42.622;25.386;2024-02-28T14:24:42;14.20;;;5.97;;
9438;SDS011;5176;42.622;25.386;2024-02-28T14:27:10;14.18;;;6.53;;
9438;SDS011;5176;42.622;25.386;2024-02-28T14:29:37;6.28;;;5.25;;
9438;SDS011;5176;42.622;25.386;2024-02-28T14:32:05;5.05;;;4.55;;
9438;SDS011;5176;42.622;25.386;2024-02-28T14:34:33;6.97;;;4.70;;
9438;SDS011;5176;42.622;25.386;2024-02-28T14:37:01;6.38;;;4.90;;
9438;SDS011;5176;42.622;25.386;2024-02-28T14:39:29;6.85;;;5.13;;
9438;SDS011;5176;42.622;25.386;2024-02-28T14:41:58;11.98;;;6.53;;
9438;SDS011;5176;42.622;25.386;2024-02-28T14:44:25;11.35;;;7.03;;